createdAt,value
2023-02-15T00:00:11.391Z,100077.31
2023-02-15T00:02:39.541Z,100083.78
2023-02-15T00:05:10.238Z,100078.44
2023-02-15T00:07:37.933Z,100075.13
2023-02-15T00:10:07.209Z,100075.09
2023-02-15T00:12:38.632Z,100075.00
2023-02-15T00:15:06.807Z,100068.72
2023-02-15T00:17:34.593Z,100062.78
2023-02-15T00:20:02.340Z,100054.66
2023-02-15T00:22:30.013Z,100054.75
2023-02-15T00:24:57.743Z,100054.16
2023-02-15T00:27:27.863Z,100057.59
2023-02-15T00:29:57.769Z,100053.72
2023-02-15T00:32:27.977Z,100047.16
2023-02-15T00:34:55.744Z,100052.47
2023-02-15T00:37:25.638Z,100051.50
2023-02-15T00:39:53.375Z,100049.59
2023-02-15T00:42:21.183Z,100046.84
2023-02-15T00:44:48.940Z,100051.97
2023-02-15T00:47:18.062Z,100051.81
2023-02-15T00:49:45.904Z,100049.59
2023-02-15T00:52:13.659Z,100054.75
2023-02-15T00:54:43.482Z,100057.31
2023-02-15T00:57:11.189Z,100060.13
2023-02-15T00:59:38.935Z,100055.38
2023-02-15T01:02:08.873Z,100059.88
2023-02-15T01:04:38.044Z,100055.56
2023-02-15T01:07:05.887Z,100057.91
2023-02-15T01:09:34.774Z,100051.19
2023-02-15T01:12:04.641Z,100051.94
2023-02-15T01:14:32.479Z,100052.16
2023-02-15T01:17:02.397Z,100048.66
2023-02-15T01:19:30.192Z,100048.78
2023-02-15T01:21:59.425Z,100049.59
2023-02-15T01:24:27.197Z,100048.41
2023-02-15T01:26:55.024Z,100057.44
2023-02-15T01:29:22.988Z,100063.50
2023-02-15T01:31:50.914Z,100056.47
2023-02-15T01:34:18.827Z,100053.34
2023-02-15T01:36:46.588Z,100053.50
2023-02-15T01:39:17.822Z,100055.97
2023-02-15T01:41:45.585Z,100048.56
2023-02-15T01:44:50.800Z,100046.63
2023-02-15T01:47:22.792Z,100045.22
2023-02-15T01:49:54.945Z,100038.03
2023-02-15T01:52:22.757Z,100049.22
2023-02-15T01:54:54.443Z,100032.66
2023-02-15T01:57:25.986Z,100031.25
2023-02-15T02:00:00.193Z,100037.44
2023-02-15T02:02:29.121Z,100028.75
2023-02-15T02:05:00.433Z,100027.78
2023-02-15T02:07:30.852Z,100030.81
2023-02-15T02:10:03.552Z,100031.75
2023-02-15T02:12:37.925Z,100027.47
2023-02-15T02:15:06.396Z,100023.50
2023-02-15T02:17:44.792Z,100018.50
2023-02-15T02:20:51.103Z,100016.69
2023-02-15T02:23:29.330Z,100032.16
2023-02-15T02:26:30.673Z,100040.53
2023-02-15T02:29:40.569Z,100030.13
2023-02-15T02:32:32.667Z,100026.94
2023-02-15T02:35:13.400Z,100023.94
2023-02-15T02:37:52.707Z,100027.13
2023-02-15T02:40:27.829Z,100030.09
2023-02-15T02:43:02.191Z,100012.53
2023-02-15T02:45:36.480Z,100015.84
2023-02-15T02:48:07.892Z,100020.13
2023-02-15T02:50:37.044Z,100025.22
2023-02-15T02:53:04.782Z,100026.09
2023-02-15T02:55:36.959Z,100033.81
2023-02-15T02:58:17.203Z,100031.28
2023-02-15T03:00:55.594Z,100016.59
2023-02-15T03:03:30.169Z,100017.00
2023-02-15T03:06:02.619Z,100018.19
2023-02-15T03:08:35.931Z,100008.66
2023-02-15T03:11:06.057Z,100009.59
2023-02-15T03:13:34.962Z,100015.59
2023-02-15T03:16:21.804Z,100007.03
2023-02-15T03:18:58.793Z,100001.50
2023-02-15T03:21:35.730Z,100006.16
2023-02-15T03:24:11.685Z,100014.59
2023-02-15T03:26:42.131Z,100013.81
2023-02-15T03:29:12.388Z,100010.28
2023-02-15T03:31:46.381Z,100011.66
2023-02-15T03:34:17.065Z,100002.78
2023-02-15T03:36:54.207Z,100002.53
2023-02-15T03:39:25.238Z,100006.88
2023-02-15T03:42:01.017Z,100009.47
2023-02-15T03:44:33.763Z,100018.91
2023-02-15T03:47:08.093Z,100023.50
2023-02-15T03:49:42.633Z,100016.00
2023-02-15T03:52:15.006Z,100014.31
2023-02-15T03:54:47.331Z,100013.84
2023-02-15T03:57:36.518Z,100018.03
2023-02-15T04:00:25.403Z,100018.69
2023-02-15T04:03:21.702Z,100011.91
2023-02-15T04:05:49.532Z,100018.69
2023-02-15T04:08:41.830Z,100013.25
2023-02-15T04:11:08.649Z,100017.28
2023-02-15T04:13:36.506Z,100016.47
2023-02-15T04:16:07.938Z,100011.22
2023-02-15T04:18:57.874Z,100012.56
2023-02-15T04:21:45.405Z,100003.09
2023-02-15T04:24:32.987Z,100005.19
2023-02-15T04:27:01.521Z,100005.66
2023-02-15T04:29:29.853Z,100001.09
2023-02-15T04:31:59.613Z,99995.69
2023-02-15T04:34:27.488Z,99997.41
2023-02-15T04:36:55.269Z,100003.97
2023-02-15T04:39:24.442Z,99986.00
2023-02-15T04:41:52.478Z,99996.16
2023-02-15T04:44:20.820Z,100003.75
2023-02-15T04:46:49.222Z,99987.59
2023-02-15T04:49:17.131Z,99987.06
2023-02-15T04:51:44.895Z,99982.44
2023-02-15T04:54:12.644Z,99975.00
2023-02-15T04:56:41.800Z,99977.31
2023-02-15T04:59:11.762Z,99975.31
2023-02-15T05:01:39.737Z,99974.56
2023-02-15T05:04:07.610Z,99974.72
2023-02-15T05:06:35.717Z,99975.56
2023-02-15T05:09:03.499Z,99987.00
2023-02-15T05:11:33.621Z,99999.06
2023-02-15T05:14:02.769Z,99993.72
2023-02-15T05:16:30.684Z,100006.00
2023-02-15T05:19:00.723Z,100000.97
2023-02-15T05:21:28.613Z,99992.56
2023-02-15T05:23:56.442Z,99996.47
2023-02-15T05:26:43.761Z,99991.59
2023-02-15T05:29:13.030Z,99993.72
2023-02-15T05:31:41.122Z,99987.50
2023-02-15T05:34:09.144Z,99991.63
2023-02-15T05:36:36.991Z,99997.44
2023-02-15T05:39:06.817Z,99990.13
2023-02-15T05:41:34.714Z,100007.28
2023-02-15T05:44:05.932Z,100000.19
2023-02-15T05:46:37.133Z,99991.25
2023-02-15T05:49:05.056Z,99993.06
2023-02-15T05:51:32.787Z,99992.00
2023-02-15T05:54:00.647Z,99993.94
2023-02-15T05:56:28.574Z,99996.66
2023-02-15T05:58:56.428Z,99992.53
2023-02-15T06:01:24.610Z,99991.53
2023-02-15T06:03:56.753Z,99991.69
2023-02-15T06:06:24.485Z,100002.28
2023-02-15T06:08:52.381Z,99998.63
2023-02-15T06:11:20.207Z,99995.31
2023-02-15T06:13:47.968Z,99999.56
2023-02-15T06:16:16.799Z,100002.91
2023-02-15T06:18:44.919Z,99998.66
2023-02-15T06:21:14.128Z,99995.78
2023-02-15T06:23:42.140Z,100010.94
2023-02-15T06:26:09.909Z,100009.13
2023-02-15T06:28:38.172Z,100005.59
2023-02-15T06:31:06.496Z,100020.31
2023-02-15T06:33:35.304Z,100018.69
2023-02-15T06:36:04.781Z,100015.25
2023-02-15T06:38:34.192Z,100018.66
2023-02-15T06:41:02.013Z,100023.03
2023-02-15T06:43:29.790Z,100023.97
2023-02-15T06:45:57.696Z,100029.13
2023-02-15T06:48:25.531Z,100028.09
2023-02-15T06:50:53.290Z,100027.00
2023-02-15T06:53:21.177Z,100033.94
2023-02-15T06:55:50.375Z,100031.66
2023-02-15T06:58:19.008Z,100027.97
2023-02-15T07:00:47.059Z,100025.59
2023-02-15T07:03:16.775Z,100023.00
2023-02-15T07:05:44.662Z,100026.94
2023-02-15T07:08:15.130Z,100027.00
2023-02-15T07:10:45.715Z,100035.06
2023-02-15T07:13:13.918Z,100032.31
2023-02-15T07:15:41.820Z,100045.09
2023-02-15T07:18:10.009Z,100047.97
2023-02-15T07:20:38.475Z,100047.88
2023-02-15T07:23:06.837Z,100045.63
2023-02-15T07:25:34.663Z,100050.81
2023-02-15T07:28:04.564Z,100053.25
2023-02-15T07:30:34.106Z,100048.19
2023-02-15T07:33:19.521Z,100052.47
2023-02-15T07:35:50.778Z,100051.59
2023-02-15T07:38:18.680Z,100044.38
2023-02-15T07:40:47.250Z,100049.47
2023-02-15T07:43:15.911Z,100039.66
2023-02-15T07:45:45.589Z,100031.69
2023-02-15T07:48:13.359Z,100035.16
2023-02-15T07:50:43.865Z,100027.41
2023-02-15T07:53:11.686Z,100016.31
2023-02-15T07:55:39.818Z,100017.72
2023-02-15T07:58:07.633Z,100022.75
2023-02-15T08:00:55.367Z,100022.72
2023-02-15T08:03:27.933Z,100019.44
2023-02-15T08:05:59.897Z,100029.31
2023-02-15T08:08:34.243Z,100035.31
2023-02-15T08:11:21.227Z,100042.38
2023-02-15T08:13:55.986Z,100048.31
2023-02-15T08:16:29.213Z,100038.09
2023-02-15T08:18:59.368Z,100045.97
2023-02-15T08:21:29.594Z,100036.69
2023-02-15T08:23:57.786Z,100046.88
2023-02-15T08:26:26.817Z,100043.00
2023-02-15T08:28:54.724Z,100038.19
2023-02-15T08:31:25.362Z,100032.88
2023-02-15T08:33:55.498Z,100034.34
2023-02-15T08:36:26.494Z,100036.97
2023-02-15T08:38:54.298Z,100027.91
2023-02-15T08:41:24.183Z,100031.16
2023-02-15T08:43:55.344Z,100036.00
2023-02-15T08:46:24.817Z,100033.66
2023-02-15T08:48:52.842Z,100039.59
2023-02-15T08:51:22.579Z,100037.28
2023-02-15T08:53:54.041Z,100026.66
2023-02-15T08:56:24.898Z,100038.25
2023-02-15T08:58:52.735Z,100028.25
2023-02-15T09:01:22.672Z,100023.69
2023-02-15T09:03:53.826Z,100010.75
2023-02-15T09:06:22.816Z,100018.31
2023-02-15T09:08:52.403Z,100010.47
2023-02-15T09:11:24.798Z,100012.81
2023-02-15T09:13:55.217Z,100009.78
2023-02-15T09:16:24.068Z,100018.34
2023-02-15T09:18:52.870Z,100013.19
2023-02-15T09:21:22.824Z,100005.19
2023-02-15T09:23:53.648Z,100004.28
2023-02-15T09:26:22.992Z,100003.84
2023-02-15T09:28:59.234Z,99991.00
2023-02-15T09:31:29.535Z,99999.59
2023-02-15T09:33:58.463Z,99990.81
2023-02-15T09:36:28.340Z,99989.88
2023-02-15T09:38:59.308Z,99986.72
2023-02-15T09:41:54.459Z,99988.00
2023-02-15T09:44:33.399Z,99986.41
2023-02-15T09:47:23.896Z,99979.03
2023-02-15T09:50:02.570Z,99972.59
2023-02-15T09:52:48.882Z,99972.75
2023-02-15T09:55:40.885Z,99976.03
2023-02-15T09:58:19.452Z,99982.03
2023-02-15T10:00:56.363Z,99974.50
2023-02-15T10:03:44.203Z,99971.97
2023-02-15T10:06:30.934Z,99973.13
2023-02-15T10:09:17.889Z,99973.81
2023-02-15T10:12:02.960Z,99959.63
2023-02-15T10:14:52.476Z,99968.09
2023-02-15T10:17:37.083Z,99966.75
2023-02-15T10:20:19.944Z,99969.53
2023-02-15T10:23:02.562Z,99964.06
2023-02-15T10:25:43.495Z,99965.47
2023-02-15T10:28:18.191Z,99964.91
2023-02-15T10:30:49.508Z,99954.94
2023-02-15T10:33:35.252Z,99948.00
2023-02-15T10:36:14.200Z,99957.06
2023-02-15T10:38:44.664Z,99956.56
2023-02-15T10:41:25.374Z,99943.06
2023-02-15T10:44:07.270Z,99945.75
2023-02-15T10:46:56.268Z,99942.94
2023-02-15T10:49:47.382Z,99943.13
2023-02-15T10:52:30.215Z,99933.34
2023-02-15T10:55:08.141Z,99923.41
2023-02-15T10:57:44.017Z,99929.50
2023-02-15T11:00:20.744Z,99917.06
2023-02-15T11:03:04.526Z,99912.09
2023-02-15T11:05:42.366Z,99911.66
2023-02-15T11:08:12.680Z,99910.16
2023-02-15T11:10:45.019Z,99900.47
2023-02-15T11:13:17.349Z,99906.63
2023-02-15T11:15:53.547Z,99902.06
2023-02-15T11:18:28.277Z,99903.34
2023-02-15T11:21:01.741Z,99890.88
2023-02-15T11:23:30.432Z,99892.78
2023-02-15T11:26:01.722Z,99890.50
2023-02-15T11:28:33.656Z,99890.44
2023-02-15T11:31:14.362Z,99880.56
2023-02-15T11:33:45.483Z,99871.94
2023-02-15T11:36:18.211Z,99868.84
2023-02-15T11:38:48.858Z,99871.25
2023-02-15T11:41:21.121Z,99871.00
2023-02-15T11:43:55.426Z,99869.56
2023-02-15T11:46:24.843Z,99874.44
2023-02-15T11:48:52.706Z,99868.81
2023-02-15T11:51:24.446Z,99875.03
2023-02-15T11:53:53.612Z,99866.03
2023-02-15T11:56:24.491Z,99860.00
2023-02-15T11:58:57.657Z,99865.34
2023-02-15T12:01:32.766Z,99854.09
2023-02-15T12:04:04.919Z,99862.44
2023-02-15T12:06:39.550Z,99851.84
2023-02-15T12:09:21.432Z,99851.03
2023-02-15T12:11:50.890Z,99852.53
2023-02-15T12:14:18.678Z,99850.25
2023-02-15T12:16:50.342Z,99849.06
2023-02-15T12:19:30.779Z,99850.25
2023-02-15T12:22:00.172Z,99841.75
2023-02-15T12:24:32.042Z,99838.41
2023-02-15T12:27:05.382Z,99827.97
2023-02-15T12:29:41.470Z,99832.59
2023-02-15T12:32:19.215Z,99841.78
2023-02-15T12:34:48.412Z,99835.66
2023-02-15T12:37:21.958Z,99832.44
2023-02-15T12:39:55.592Z,99828.28
2023-02-15T12:42:24.828Z,99826.59
2023-02-15T12:44:57.644Z,99821.75
2023-02-15T12:47:29.387Z,99818.09
2023-02-15T12:50:17.656Z,99808.75
2023-02-15T12:52:49.904Z,99810.31
2023-02-15T12:55:26.359Z,99811.16
2023-02-15T12:58:10.058Z,99803.06
2023-02-15T13:00:38.142Z,99809.13
2023-02-15T13:03:19.716Z,99806.84
2023-02-15T13:05:52.454Z,99800.81
2023-02-15T13:08:23.005Z,99800.09
2023-02-15T13:11:00.675Z,99791.34
2023-02-15T13:13:31.340Z,99789.72
2023-02-15T13:16:01.789Z,99781.13
2023-02-15T13:18:34.186Z,99774.66
2023-02-15T13:21:08.611Z,99765.56
2023-02-15T13:23:36.577Z,99757.81
2023-02-15T13:26:06.909Z,99760.13
2023-02-15T13:28:42.516Z,99769.69
2023-02-15T13:31:16.120Z,99764.56
2023-02-15T13:33:50.180Z,99756.69
2023-02-15T13:36:29.261Z,99752.75
2023-02-15T13:39:09.679Z,99750.31
2023-02-15T13:41:52.881Z,99750.38
2023-02-15T13:44:30.516Z,99751.44
2023-02-15T13:47:08.868Z,99740.38
2023-02-15T13:49:52.973Z,99727.84
2023-02-15T13:52:23.166Z,99736.59
2023-02-15T13:55:01.756Z,99733.84
2023-02-15T13:57:57.105Z,99729.94
2023-02-15T14:00:31.039Z,99726.09
2023-02-15T14:03:24.361Z,99721.41
2023-02-15T14:06:05.181Z,99719.06
2023-02-15T14:08:48.179Z,99718.22
2023-02-15T14:11:24.604Z,99716.56
2023-02-15T14:14:24.914Z,99719.16
2023-02-15T14:17:07.511Z,99726.34
2023-02-15T14:19:42.325Z,99728.25
2023-02-15T14:22:20.775Z,99726.72
2023-02-15T14:24:56.857Z,99726.00
2023-02-15T14:27:30.102Z,99719.34
2023-02-15T14:30:00.267Z,99715.91
2023-02-15T14:32:36.541Z,99714.63
2023-02-15T14:35:06.045Z,99714.88
2023-02-15T14:37:45.494Z,99716.22
2023-02-15T14:40:39.344Z,99733.66
2023-02-15T14:43:13.050Z,99737.00
2023-02-15T14:45:57.951Z,99722.97
2023-02-15T14:48:32.402Z,99714.47
2023-02-15T14:51:03.099Z,99718.63
2023-02-15T14:53:50.136Z,99717.91
2023-02-15T14:56:30.321Z,99724.97
2023-02-15T14:59:17.225Z,99708.41
2023-02-15T15:01:56.969Z,99711.63
2023-02-15T15:04:30.669Z,99721.28
2023-02-15T15:07:09.952Z,99726.38
2023-02-15T15:09:41.212Z,99722.91
2023-02-15T15:12:37.681Z,99724.13
2023-02-15T15:15:07.301Z,99723.13
2023-02-15T15:17:57.185Z,99721.13
2023-02-15T15:20:45.338Z,99720.69
2023-02-15T15:23:46.695Z,99717.41
2023-02-15T15:26:31.819Z,99724.06
2023-02-15T15:29:03.477Z,99712.50
2023-02-15T15:31:44.871Z,99709.41
2023-02-15T15:34:30.188Z,99710.88
2023-02-15T15:37:27.821Z,99709.25
2023-02-15T15:40:35.429Z,99714.28
2023-02-15T15:43:45.003Z,99714.78
2023-02-15T15:46:32.906Z,99717.59
2023-02-15T15:49:04.925Z,99714.09
2023-02-15T15:51:34.446Z,99716.81
2023-02-15T15:54:04.974Z,99713.06
2023-02-15T15:56:37.993Z,99712.75
2023-02-15T15:59:09.898Z,99713.25
2023-02-15T16:01:43.115Z,99711.22
2023-02-15T16:04:14.101Z,99710.16
2023-02-15T16:06:42.527Z,99711.63
2023-02-15T16:09:15.777Z,99714.72
2023-02-15T16:11:44.374Z,99717.78
2023-02-15T16:14:19.990Z,99717.53
2023-02-15T16:16:54.166Z,99716.59
2023-02-15T16:19:26.611Z,99717.53
2023-02-15T16:21:55.958Z,99724.38
2023-02-15T16:24:34.803Z,99725.78
2023-02-15T16:27:26.670Z,99728.25
2023-02-15T16:29:55.919Z,99724.53
2023-02-15T16:32:25.618Z,99724.50
2023-02-15T16:34:57.612Z,99731.91
2023-02-15T16:37:28.284Z,99732.69
2023-02-15T16:39:57.459Z,99725.84
2023-02-15T16:42:26.152Z,99735.31
2023-02-15T16:45:03.719Z,99726.84
2023-02-15T17:03:57.957Z,99751.22
2023-02-15T17:06:30.693Z,99755.53
2023-02-15T17:09:06.601Z,99757.09
2023-02-15T17:11:42.534Z,99767.03
2023-02-15T17:14:22.970Z,99770.00
2023-02-15T17:16:54.654Z,99765.66
2023-02-15T17:19:27.204Z,99760.03
2023-02-15T17:21:57.217Z,99769.81
2023-02-15T17:24:35.268Z,99773.91
2023-02-15T17:27:07.055Z,99769.25
2023-02-15T17:29:40.709Z,99769.59
2023-02-15T17:32:18.337Z,99777.91
2023-02-15T17:34:59.958Z,99780.13
2023-02-15T17:37:33.472Z,99783.25
2023-02-15T17:40:03.044Z,99780.22
2023-02-15T17:42:31.540Z,99786.25
2023-02-15T17:44:59.412Z,99790.56
2023-02-15T17:47:38.917Z,99786.09
2023-02-15T17:50:09.974Z,99788.84
2023-02-15T17:52:38.136Z,99787.66
2023-02-15T17:55:31.800Z,99790.28
2023-02-15T17:58:00.627Z,99789.28
2023-02-15T18:00:46.027Z,99784.94
2023-02-15T18:03:31.845Z,99785.72
2023-02-15T18:06:18.863Z,99786.06
2023-02-15T18:09:03.962Z,99790.41
2023-02-15T18:11:40.702Z,99782.53
2023-02-15T18:14:11.973Z,99786.50
2023-02-15T18:16:43.351Z,99778.16
2023-02-15T18:19:16.826Z,99789.19
2023-02-15T18:21:47.347Z,99786.00
2023-02-15T18:24:18.481Z,99791.81
2023-02-15T18:26:47.078Z,99783.66
2023-02-15T18:29:15.180Z,99789.66
2023-02-15T18:31:45.509Z,99795.59
2023-02-15T18:34:23.896Z,99794.94
2023-02-15T18:36:56.284Z,99789.50
2023-02-15T18:39:38.490Z,99797.56
2023-02-15T18:42:07.225Z,99792.72
2023-02-15T18:44:35.012Z,99793.53
2023-02-15T18:47:02.783Z,99791.31
2023-02-15T18:49:30.617Z,99792.13
2023-02-15T18:52:03.584Z,99781.72
2023-02-15T18:54:31.600Z,99781.16
2023-02-15T18:57:02.380Z,99776.44
2023-02-15T18:59:31.137Z,99779.91
2023-02-15T19:02:00.455Z,99787.09
2023-02-15T19:04:28.278Z,99779.34
2023-02-15T19:06:56.290Z,99774.81
2023-02-15T19:09:27.763Z,99774.75
2023-02-15T19:11:57.168Z,99770.44
2023-02-15T19:14:28.079Z,99772.16
2023-02-15T19:16:56.495Z,99770.03
2023-02-15T19:19:27.162Z,99770.66
2023-02-15T19:21:55.638Z,99774.09
2023-02-15T19:24:28.674Z,99770.13
2023-02-15T19:26:58.747Z,99768.47
2023-02-15T19:29:29.341Z,99768.31
2023-02-15T19:31:58.131Z,99765.97
2023-02-15T19:34:26.069Z,99767.94
2023-02-15T19:36:56.600Z,99768.75
2023-02-15T19:39:31.070Z,99758.78
2023-02-15T19:41:58.893Z,99768.22
2023-02-15T19:44:26.790Z,99765.63
2023-02-15T19:46:54.630Z,99759.19
2023-02-15T19:49:22.426Z,99761.41
2023-02-15T19:51:50.433Z,99765.94
2023-02-15T19:54:28.171Z,99758.09
2023-02-15T19:56:58.013Z,99759.63
2023-02-15T19:59:27.528Z,99756.84
2023-02-15T20:01:55.424Z,99752.53
2023-02-15T20:04:23.822Z,99754.91
2023-02-15T20:06:53.810Z,99752.47
2023-02-15T20:09:25.392Z,99751.38
2023-02-15T20:11:53.551Z,99748.94
2023-02-15T20:14:23.585Z,99760.72
2023-02-15T20:16:51.498Z,99762.53
2023-02-15T20:19:19.452Z,99767.63
2023-02-15T20:21:51.883Z,99759.94
2023-02-15T20:24:22.154Z,99752.41
2023-02-15T20:26:50.321Z,99759.53
2023-02-15T20:29:19.793Z,99760.38
2023-02-15T20:31:48.993Z,99752.25
2023-02-15T20:34:16.861Z,99753.91
2023-02-15T20:36:44.601Z,99758.44
2023-02-15T20:39:16.399Z,99750.75
2023-02-15T20:41:48.056Z,99749.28
2023-02-15T20:44:22.043Z,99762.69
2023-02-15T20:46:52.887Z,99753.38
2023-02-15T20:49:20.781Z,99757.34
2023-02-15T20:51:49.089Z,99749.06
2023-02-15T20:54:18.898Z,99743.41
2023-02-15T20:56:47.478Z,99749.06
2023-02-15T20:59:26.777Z,99745.78
2023-02-15T21:02:00.563Z,99742.97
2023-02-15T21:04:31.325Z,99744.47
2023-02-15T21:06:59.884Z,99743.19
2023-02-15T21:09:28.179Z,99731.72
2023-02-15T21:11:57.941Z,99739.81
2023-02-15T21:14:28.123Z,99745.50
2023-02-15T21:16:57.565Z,99743.22
2023-02-15T21:19:25.923Z,99744.53
2023-02-15T21:21:54.585Z,99741.53
2023-02-15T21:24:25.379Z,99753.91
2023-02-15T21:26:54.348Z,99752.41
2023-02-15T21:29:24.130Z,99747.38
2023-02-15T21:31:52.172Z,99742.41
2023-02-15T21:34:21.836Z,99736.13
2023-02-15T21:36:50.566Z,99732.84
2023-02-15T21:39:22.139Z,99731.72
2023-02-15T21:42:08.846Z,99731.56
2023-02-15T21:44:57.069Z,99735.13
2023-02-15T21:47:44.700Z,99733.31
2023-02-15T21:50:33.067Z,99736.66
2023-02-15T21:53:11.818Z,99734.19
2023-02-15T21:55:39.902Z,99739.50
2023-02-15T21:58:07.653Z,99737.25
2023-02-15T22:00:35.414Z,99740.75
2023-02-15T22:03:03.243Z,99730.38
2023-02-15T22:05:34.431Z,99727.31
2023-02-15T22:08:02.454Z,99736.56
2023-02-15T22:10:32.776Z,99740.06
2023-02-15T22:13:04.079Z,99739.19
2023-02-15T22:15:35.591Z,99734.34
2023-02-15T22:18:04.425Z,99739.81
2023-02-15T22:20:33.665Z,99752.69
2023-02-15T22:23:03.762Z,99746.13
2023-02-15T22:25:31.643Z,99746.66
2023-02-15T22:27:59.426Z,99749.81
2023-02-15T22:30:29.764Z,99747.59
2023-02-15T22:32:59.133Z,99749.28
2023-02-15T22:35:29.206Z,99747.88
2023-02-15T22:37:59.274Z,99744.34
2023-02-15T22:40:30.049Z,99743.44
2023-02-15T22:43:00.795Z,99732.44
2023-02-15T22:45:29.130Z,99736.63
2023-02-15T22:47:59.613Z,99736.44
2023-02-15T22:50:29.708Z,99742.22
2023-02-15T22:53:00.690Z,99735.59
2023-02-15T22:55:32.058Z,99737.91
2023-02-15T22:58:00.219Z,99736.38
2023-02-15T23:00:30.569Z,99738.09
2023-02-15T23:02:58.535Z,99752.53
2023-02-15T23:05:30.906Z,99750.44
2023-02-15T23:08:00.013Z,99747.03
2023-02-15T23:10:29.969Z,99747.41
2023-02-15T23:13:17.103Z,99756.00
2023-02-15T23:15:48.713Z,99752.88
2023-02-15T23:18:19.687Z,99756.38
2023-02-15T23:20:50.141Z,99758.16
2023-02-15T23:23:23.607Z,99755.66
2023-02-15T23:25:51.427Z,99755.03
2023-02-15T23:28:22.612Z,99759.25
2023-02-15T23:30:50.827Z,99765.00
2023-02-15T23:33:21.576Z,99765.00
2023-02-15T23:35:49.722Z,99761.72
2023-02-15T23:38:24.936Z,99765.09
2023-02-15T23:41:14.257Z,99758.78
2023-02-15T23:43:47.355Z,99762.94
2023-02-15T23:46:27.114Z,99767.13
2023-02-15T23:48:55.857Z,99761.88
2023-02-15T23:51:31.073Z,99755.38
2023-02-15T23:54:00.217Z,99766.75
2023-02-15T23:56:27.971Z,99766.41
2023-02-15T23:58:55.892Z,99769.03
